createdAt,value
2022-12-04T00:00:23.703Z,103282.27
2022-12-04T00:01:25.519Z,103272.32
2022-12-04T00:02:27.416Z,103271.23
2022-12-04T00:03:29.332Z,103282.02
2022-12-04T00:04:31.266Z,103280.42
2022-12-04T00:05:33.102Z,103277.55
2022-12-04T00:06:34.903Z,103279.92
2022-12-04T00:07:36.813Z,103279.92
2022-12-04T00:08:38.563Z,103285.35
2022-12-04T00:09:40.371Z,103275.66
2022-12-04T00:10:42.197Z,103285.84
2022-12-04T00:11:44.018Z,103288.72
2022-12-04T00:12:45.853Z,103283.06
2022-12-04T00:13:47.651Z,103286.94
2022-12-04T00:15:23.914Z,103302.22
2022-12-04T00:15:53.120Z,103290.44
2022-12-04T00:16:55.125Z,103293.92
2022-12-04T00:17:57.017Z,103296.46
2022-12-04T00:18:58.888Z,103297.36
2022-12-04T00:20:00.678Z,103305.33
2022-12-04T00:21:02.484Z,103312.96
2022-12-04T00:22:04.290Z,103286.77
2022-12-04T00:23:06.143Z,103296.20
2022-12-04T00:24:07.950Z,103305.82
2022-12-04T00:25:09.775Z,103302.05
2022-12-04T00:26:11.899Z,103295.47
2022-12-04T00:27:13.697Z,103293.09
2022-12-04T00:28:15.560Z,103301.06
2022-12-04T00:29:17.394Z,103305.42
2022-12-04T00:30:19.195Z,103295.64
2022-12-04T00:31:21.058Z,103296.20
2022-12-04T00:32:23.164Z,103298.19
2022-12-04T00:33:25.013Z,103305.27
2022-12-04T00:34:26.823Z,103297.29
2022-12-04T00:35:28.649Z,103298.02
2022-12-04T00:36:30.473Z,103305.66
2022-12-04T00:37:32.293Z,103305.33
2022-12-04T00:38:34.149Z,103304.99
2022-12-04T00:39:35.952Z,103303.17
2022-12-04T00:40:37.749Z,103314.95
2022-12-04T00:41:39.549Z,103319.11
2022-12-04T00:42:41.355Z,103313.86
2022-12-04T00:43:43.187Z,103304.93
2022-12-04T00:44:44.975Z,103299.84
2022-12-04T00:45:46.873Z,103300.89
2022-12-04T00:46:48.776Z,103310.19
2022-12-04T00:47:50.603Z,103300.56
2022-12-04T00:48:52.467Z,103309.27
2022-12-04T00:49:54.556Z,103302.55
2022-12-04T00:50:56.430Z,103309.09
2022-12-04T00:51:58.232Z,103292.03
2022-12-04T00:53:00.064Z,103307.64
2022-12-04T00:54:01.923Z,103304.00
2022-12-04T00:55:03.714Z,103302.22
2022-12-04T00:56:05.632Z,103303.27
2022-12-04T00:57:07.454Z,103301.45
2022-12-04T00:58:09.278Z,103306.05
2022-12-04T00:59:11.115Z,103309.52
2022-12-04T01:00:13.026Z,103309.52
2022-12-04T01:01:14.883Z,103306.81
2022-12-04T01:02:16.639Z,103301.72
2022-12-04T01:03:18.488Z,103311.31
2022-12-04T01:04:20.298Z,103300.40
2022-12-04T01:05:22.163Z,103303.50
2022-12-04T01:06:23.956Z,103311.31
2022-12-04T01:07:25.764Z,103303.67
2022-12-04T01:08:27.569Z,103312.47
2022-12-04T01:09:29.426Z,103309.59
2022-12-04T01:10:31.336Z,103307.59
2022-12-04T01:11:33.154Z,103311.80
2022-12-04T01:12:34.937Z,103305.28
2022-12-04T01:13:36.749Z,103319.99
2022-12-04T01:14:38.586Z,103319.83
2022-12-04T01:15:40.406Z,103325.08
2022-12-04T01:16:42.231Z,103306.70
2022-12-04T01:17:44.003Z,103308.53
2022-12-04T01:18:45.783Z,103306.54
2022-12-04T01:19:47.630Z,103316.00
2022-12-04T01:20:49.692Z,103318.71
2022-12-04T01:21:51.494Z,103315.57
2022-12-04T01:22:53.395Z,103320.10
2022-12-04T01:23:55.230Z,103305.72
2022-12-04T01:24:57.093Z,103316.07
2022-12-04T01:25:58.899Z,103309.36
2022-12-04T01:27:01.105Z,103326.75
2022-12-04T01:28:02.908Z,103315.51
2022-12-04T01:29:04.703Z,103303.50
2022-12-04T01:30:06.832Z,103304.43
2022-12-04T01:31:08.629Z,103312.62
2022-12-04T01:32:10.478Z,103315.73
2022-12-04T01:33:12.238Z,103317.39
2022-12-04T01:34:14.049Z,103310.31
2022-12-04T01:35:15.895Z,103319.94
2022-12-04T01:36:17.920Z,103311.23
2022-12-04T01:37:19.735Z,103316.33
2022-12-04T01:38:21.545Z,103311.07
2022-12-04T01:39:23.357Z,103320.16
2022-12-04T01:40:25.237Z,103309.09
2022-12-04T01:41:27.035Z,103315.07
2022-12-04T01:42:28.831Z,103315.41
2022-12-04T01:43:30.605Z,103311.41
2022-12-04T01:44:32.427Z,103318.88
2022-12-04T01:45:34.315Z,103323.80
2022-12-04T01:46:36.097Z,103316.89
2022-12-04T01:47:37.903Z,103313.25
2022-12-04T01:48:39.711Z,103306.54
2022-12-04T01:49:41.527Z,103317.95
2022-12-04T01:50:43.490Z,103328.47
2022-12-04T01:51:45.389Z,103316.16
2022-12-04T01:52:47.194Z,103316.33
2022-12-04T01:53:48.978Z,103314.34
2022-12-04T01:54:50.786Z,103306.93
2022-12-04T01:55:52.635Z,103310.96
2022-12-04T01:56:54.414Z,103314.96
2022-12-04T01:57:56.243Z,103320.05
2022-12-04T01:58:58.071Z,103310.46
2022-12-04T01:59:59.991Z,103309.70
2022-12-04T02:01:07.876Z,103305.93
2022-12-04T02:02:05.608Z,103305.20
2022-12-04T02:03:07.601Z,103311.35
2022-12-04T02:04:09.459Z,103308.98
2022-12-04T02:05:11.246Z,103315.89
2022-12-04T02:06:13.117Z,103319.49
2022-12-04T02:07:14.993Z,103311.69
2022-12-04T02:08:16.832Z,103307.33
2022-12-04T02:09:24.628Z,103313.00
2022-12-04T02:10:22.216Z,103328.45
2022-12-04T02:11:24.084Z,103324.41
2022-12-04T02:12:25.918Z,103322.85
2022-12-04T02:13:27.728Z,103317.26
2022-12-04T02:14:29.637Z,103323.07
2022-12-04T02:15:31.443Z,103329.98
2022-12-04T02:16:33.311Z,103318.88
2022-12-04T02:17:35.102Z,103324.30
2022-12-04T02:18:36.898Z,103336.64
2022-12-04T02:19:38.702Z,103327.85
2022-12-04T02:20:40.621Z,103328.78
2022-12-04T02:21:42.488Z,103333.28
2022-12-04T02:22:44.363Z,103340.36
2022-12-04T02:23:46.178Z,103336.92
2022-12-04T02:24:50.237Z,103343.41
2022-12-04T02:25:51.603Z,103345.00
2022-12-04T02:26:53.775Z,103343.52
2022-12-04T02:27:55.567Z,103352.37
2022-12-04T02:28:57.350Z,103359.80
2022-12-04T02:29:59.169Z,103356.13
2022-12-04T02:31:01.016Z,103349.38
2022-12-04T02:32:02.932Z,103352.98
2022-12-04T02:33:04.747Z,103354.64
2022-12-04T02:34:06.561Z,103357.19
2022-12-04T02:35:08.375Z,103352.82
2022-12-04T02:36:10.194Z,103360.46
2022-12-04T02:37:12.053Z,103347.00
2022-12-04T02:38:13.864Z,103358.51
2022-12-04T02:39:15.674Z,103356.86
2022-12-04T02:40:17.490Z,103348.66
2022-12-04T02:41:19.302Z,103354.80
2022-12-04T02:42:21.804Z,103360.96
2022-12-04T02:43:23.610Z,103337.70
2022-12-04T02:44:25.402Z,103364.10
2022-12-04T02:45:27.220Z,103359.56
2022-12-04T02:46:29.094Z,103345.77
2022-12-04T02:47:30.973Z,103349.61
2022-12-04T02:48:32.776Z,103340.91
2022-12-04T02:49:34.573Z,103343.62
2022-12-04T02:50:36.482Z,103337.20
2022-12-04T02:51:38.277Z,103334.83
2022-12-04T02:52:40.122Z,103333.20
2022-12-04T02:53:41.984Z,103334.99
2022-12-04T02:54:43.797Z,103330.98
2022-12-04T02:55:45.612Z,103341.02
2022-12-04T02:56:47.433Z,103332.45
2022-12-04T02:57:49.279Z,103333.05
2022-12-04T02:58:51.080Z,103325.41
2022-12-04T02:59:53.309Z,103339.59
2022-12-04T03:00:55.679Z,103328.17
2022-12-04T03:01:57.566Z,103332.34
2022-12-04T03:02:59.564Z,103335.81
2022-12-04T03:04:01.477Z,103328.91
2022-12-04T03:05:03.282Z,103326.52
2022-12-04T03:06:05.193Z,103337.44
2022-12-04T03:07:07.048Z,103329.47
2022-12-04T03:08:08.959Z,103327.84
2022-12-04T03:09:10.776Z,103337.27
2022-12-04T03:10:13.288Z,103333.10
2022-12-04T03:11:15.087Z,103337.77
2022-12-04T03:12:16.898Z,103339.20
2022-12-04T03:13:18.766Z,103338.30
2022-12-04T03:14:20.584Z,103347.72
2022-12-04T03:15:22.398Z,103354.97
2022-12-04T03:16:24.319Z,103342.80
2022-12-04T03:17:26.109Z,103331.39
2022-12-04T03:18:27.952Z,103335.05
2022-12-04T03:19:29.769Z,103338.03
2022-12-04T03:20:31.684Z,103335.71
2022-12-04T03:21:33.472Z,103316.33
2022-12-04T03:22:35.283Z,103330.52
2022-12-04T03:23:37.136Z,103322.70
2022-12-04T03:24:38.945Z,103321.25
2022-12-04T03:25:40.759Z,103325.75
2022-12-04T03:26:42.974Z,103335.55
2022-12-04T03:27:44.773Z,103332.11
2022-12-04T03:28:46.617Z,103341.70
2022-12-04T03:29:48.430Z,103343.18
2022-12-04T03:30:50.360Z,103336.27
2022-12-04T03:31:52.147Z,103334.87
2022-12-04T03:32:53.958Z,103323.43
2022-12-04T03:33:55.802Z,103335.99
2022-12-04T03:34:57.619Z,103334.38
2022-12-04T03:35:59.441Z,103332.00
2022-12-04T03:37:01.235Z,103324.75
2022-12-04T03:38:03.045Z,103344.55
2022-12-04T03:39:04.906Z,103340.19
2022-12-04T03:40:06.841Z,103337.81
2022-12-04T03:41:08.645Z,103337.25
2022-12-04T03:42:10.443Z,103327.63
2022-12-04T03:43:12.262Z,103332.16
2022-12-04T03:44:14.121Z,103329.78
2022-12-04T03:45:15.918Z,103341.45
2022-12-04T03:46:17.831Z,103324.19
2022-12-04T03:47:19.642Z,103339.47
2022-12-04T03:48:23.494Z,103338.70
2022-12-04T03:49:25.114Z,103335.27
2022-12-04T03:50:27.021Z,103342.73
2022-12-04T03:51:28.815Z,103346.77
2022-12-04T03:52:30.622Z,103342.40
2022-12-04T03:53:32.430Z,103346.77
2022-12-04T03:54:34.265Z,103350.38
2022-12-04T03:55:36.139Z,103346.17
2022-12-04T03:56:37.942Z,103344.39
2022-12-04T03:57:39.755Z,103336.59
2022-12-04T03:58:41.575Z,103337.31
2022-12-04T03:59:43.429Z,103336.41
2022-12-04T04:00:45.228Z,103360.22
2022-12-04T04:01:47.059Z,103350.20
2022-12-04T04:02:48.990Z,103354.41
2022-12-04T04:03:50.755Z,103345.00
2022-12-04T04:04:52.599Z,103347.20
2022-12-04T04:05:54.406Z,103349.58
2022-12-04T04:06:56.223Z,103365.78
2022-12-04T04:07:58.064Z,103349.41
2022-12-04T04:08:59.852Z,103348.02
2022-12-04T04:10:01.805Z,103363.83
2022-12-04T04:11:03.618Z,103363.66
2022-12-04T04:12:05.426Z,103358.96
2022-12-04T04:14:08.982Z,103356.20
2022-12-04T04:15:10.834Z,103365.57
2022-12-04T04:16:12.675Z,103370.66
2022-12-04T04:17:14.449Z,103367.94
2022-12-04T04:18:16.260Z,103374.85
2022-12-04T04:19:18.075Z,103366.33
2022-12-04T04:20:19.915Z,103368.87
2022-12-04T04:21:21.722Z,103364.33
2022-12-04T04:22:23.500Z,103373.58
2022-12-04T04:23:25.324Z,103369.59
2022-12-04T04:24:27.155Z,103355.05
2022-12-04T04:25:28.993Z,103364.51
2022-12-04T04:26:30.932Z,103366.16
2022-12-04T04:27:32.748Z,103370.87
2022-12-04T04:28:34.583Z,103366.88
2022-12-04T04:29:36.349Z,103369.59
2022-12-04T04:30:38.209Z,103364.33
2022-12-04T04:31:40.074Z,103377.44
2022-12-04T04:32:41.924Z,103366.92
2022-12-04T04:33:43.716Z,103367.47
2022-12-04T04:34:45.508Z,103362.38
2022-12-04T04:35:47.365Z,103364.92
2022-12-04T04:36:49.169Z,103363.82
2022-12-04T04:37:50.987Z,103356.58
2022-12-04T04:38:52.775Z,103362.89
2022-12-04T04:39:54.865Z,103357.09
2022-12-04T04:40:56.931Z,103367.43
2022-12-04T04:41:58.802Z,103365.78
2022-12-04T04:43:01.737Z,103364.00
2022-12-04T04:44:03.576Z,103359.97
2022-12-04T04:45:05.352Z,103361.79
2022-12-04T04:46:08.316Z,103365.78
2022-12-04T04:47:10.067Z,103362.34
2022-12-04T04:48:11.873Z,103372.17
2022-12-04T04:49:13.694Z,103368.95
2022-12-04T04:50:15.601Z,103364.65
2022-12-04T04:51:17.822Z,103366.47
2022-12-04T04:52:19.634Z,103359.97
2022-12-04T04:53:21.441Z,103380.14
2022-12-04T04:54:23.235Z,103379.08
2022-12-04T04:55:25.081Z,103369.97
2022-12-04T04:56:26.937Z,103367.62
2022-12-04T04:57:28.750Z,103385.25
2022-12-04T04:58:30.553Z,103391.98
2022-12-04T04:59:32.362Z,103371.47
2022-12-04T05:00:34.172Z,103369.48
2022-12-04T05:01:36.079Z,103382.94
2022-12-04T05:02:37.902Z,103375.48
2022-12-04T05:03:39.747Z,103389.46
2022-12-04T05:04:41.548Z,103376.95
2022-12-04T05:05:43.355Z,103376.25
2022-12-04T05:06:45.303Z,103379.72
2022-12-04T05:07:47.165Z,103373.54
2022-12-04T05:08:49.031Z,103370.82
2022-12-04T05:09:50.842Z,103373.54
2022-12-04T05:10:52.652Z,103374.47
2022-12-04T05:11:54.493Z,103374.64
2022-12-04T05:12:56.381Z,103387.34
2022-12-04T05:13:58.211Z,103381.34
2022-12-04T05:15:00.042Z,103384.82
2022-12-04T05:16:01.893Z,103386.30
2022-12-04T05:17:07.753Z,103387.02
2022-12-04T05:18:07.450Z,103376.67
2022-12-04T05:19:09.385Z,103380.46
2022-12-04T05:20:11.297Z,103378.84
2022-12-04T05:21:13.098Z,103385.89
2022-12-04T05:22:14.945Z,103387.00
2022-12-04T05:23:16.755Z,103378.62
2022-12-04T05:24:18.549Z,103384.11
2022-12-04T05:25:20.358Z,103382.45
2022-12-04T05:26:22.163Z,103386.24
2022-12-04T05:27:24.022Z,103396.58
2022-12-04T05:28:25.851Z,103390.61
2022-12-04T05:29:30.467Z,103386.64
2022-12-04T05:30:31.276Z,103392.27
2022-12-04T05:31:33.161Z,103405.87
2022-12-04T05:32:35.177Z,103390.98
2022-12-04T05:33:37.168Z,103396.65
2022-12-04T05:34:38.940Z,103397.55
2022-12-04T05:35:40.760Z,103404.98
2022-12-04T05:36:42.598Z,103400.80
2022-12-04T05:37:44.438Z,103399.19
2022-12-04T05:38:46.264Z,103400.98
2022-12-04T05:39:48.055Z,103406.41
2022-12-04T05:40:49.868Z,103410.59
2022-12-04T05:41:51.680Z,103404.80
2022-12-04T05:42:53.526Z,103416.22
2022-12-04T05:43:55.457Z,103396.08
2022-12-04T05:44:57.266Z,103401.73
2022-12-04T05:45:59.082Z,103402.45
2022-12-04T05:47:01.245Z,103411.54
2022-12-04T05:48:03.032Z,103412.45
2022-12-04T05:49:04.840Z,103408.48
2022-12-04T05:50:06.849Z,103405.05
2022-12-04T05:51:08.651Z,103413.56
2022-12-04T05:52:10.475Z,103409.55
2022-12-04T05:53:12.323Z,103402.33
2022-12-04T05:54:14.127Z,103402.11
2022-12-04T05:55:15.940Z,103417.56
2022-12-04T05:56:18.063Z,103403.22
2022-12-04T05:57:19.877Z,103405.40
2022-12-04T05:58:21.706Z,103408.83
2022-12-04T05:59:23.537Z,103406.30
2022-12-04T06:00:25.336Z,103406.30
2022-12-04T06:01:27.160Z,103400.09
2022-12-04T06:02:29.040Z,103404.81
2022-12-04T06:03:30.979Z,103420.95
2022-12-04T06:04:32.820Z,103420.77
2022-12-04T06:05:34.622Z,103420.59
2022-12-04T06:06:36.533Z,103415.16
2022-12-04T06:07:38.396Z,103416.80
2022-12-04T06:08:40.195Z,103415.33
2022-12-04T06:09:42.011Z,103404.62
2022-12-04T06:10:43.808Z,103416.56
2022-12-04T06:11:45.610Z,103414.20
2022-12-04T06:12:47.419Z,103415.48
2022-12-04T06:13:49.269Z,103418.89
2022-12-04T06:14:51.544Z,103420.31
2022-12-04T06:15:53.345Z,103430.83
2022-12-04T06:16:55.328Z,103427.57
2022-12-04T06:17:57.169Z,103444.07
2022-12-04T06:18:59.014Z,103427.38
2022-12-04T06:20:01.002Z,103434.05
2022-12-04T06:21:03.073Z,103434.23
2022-12-04T06:22:04.854Z,103438.59
2022-12-04T06:23:06.871Z,103433.13
2022-12-04T06:24:08.719Z,103426.20
2022-12-04T06:25:10.520Z,103423.25
2022-12-04T06:26:12.711Z,103432.16
2022-12-04T06:27:29.916Z,103425.42
2022-12-04T06:28:18.150Z,103453.74
2022-12-04T06:29:20.024Z,103431.02
2022-12-04T06:30:22.005Z,103432.84
2022-12-04T06:31:23.875Z,103419.44
2022-12-04T06:32:25.669Z,103427.79
2022-12-04T06:33:27.475Z,103428.34
2022-12-04T06:34:29.330Z,103429.27
2022-12-04T06:35:31.148Z,103431.23
2022-12-04T06:36:33.063Z,103443.56
2022-12-04T06:37:34.854Z,103448.83
2022-12-04T06:38:36.661Z,103438.66
2022-12-04T06:39:38.508Z,103430.84
2022-12-04T06:40:40.423Z,103428.86
2022-12-04T06:41:42.264Z,103440.67
2022-12-04T06:42:44.090Z,103432.16
2022-12-04T06:43:46.711Z,103434.35
2022-12-04T06:44:48.663Z,103440.16
2022-12-04T06:45:50.558Z,103436.55
2022-12-04T06:46:54.645Z,103444.17
2022-12-04T06:47:55.902Z,103437.09
2022-12-04T06:48:57.709Z,103431.11
2022-12-04T06:49:59.576Z,103451.98
2022-12-04T06:51:01.354Z,103439.81
2022-12-04T06:52:03.163Z,103427.98
2022-12-04T06:53:08.435Z,103426.03
2022-12-04T06:54:08.815Z,103417.47
2022-12-04T06:55:10.670Z,103426.03
2022-12-04T06:56:12.613Z,103449.09
2022-12-04T06:57:14.409Z,103441.46
2022-12-04T06:58:16.190Z,103436.92
2022-12-04T07:00:40.522Z,103431.11
2022-12-04T07:01:42.444Z,103439.27
2022-12-04T07:02:44.319Z,103425.42
2022-12-04T07:03:51.085Z,103429.95
2022-12-04T07:04:49.778Z,103423.94
2022-12-04T07:05:51.642Z,103425.77
2022-12-04T07:06:53.461Z,103426.83
2022-12-04T07:07:55.311Z,103417.75
2022-12-04T07:08:57.081Z,103444.27
2022-12-04T07:09:58.950Z,103423.91
2022-12-04T07:11:00.751Z,103450.10
2022-12-04T07:12:02.549Z,103423.91
2022-12-04T07:13:04.360Z,103433.91
2022-12-04T07:14:06.432Z,103431.16
2022-12-04T07:15:08.392Z,103423.88
2022-12-04T07:16:10.623Z,103434.39
2022-12-04T07:17:12.626Z,103426.21
2022-12-04T07:18:14.497Z,103432.54
2022-12-04T07:19:16.416Z,103430.34
2022-12-04T07:20:18.221Z,103432.16
2022-12-04T07:21:20.068Z,103423.80
2022-12-04T07:22:21.877Z,103432.29
2022-12-04T07:23:23.670Z,103457.91
2022-12-04T07:24:25.472Z,103438.10
2022-12-04T07:25:27.265Z,103433.56
2022-12-04T07:26:29.219Z,103433.39
2022-12-04T07:27:31.044Z,103461.56
2022-12-04T07:28:32.851Z,103441.03
2022-12-04T07:29:34.664Z,103438.86
2022-12-04T07:30:36.490Z,103436.56
2022-12-04T07:31:38.467Z,103430.20
2022-12-04T07:32:40.307Z,103436.39
2022-12-04T07:33:42.109Z,103428.34
2022-12-04T07:34:43.925Z,103426.52
2022-12-04T07:35:45.751Z,103440.65
2022-12-04T07:36:47.669Z,103441.88
2022-12-04T07:37:49.477Z,103437.72
2022-12-04T07:38:51.304Z,103448.07
2022-12-04T07:39:53.480Z,103442.23
2022-12-04T07:40:55.615Z,103443.32
2022-12-04T07:41:57.519Z,103453.26
2022-12-04T07:42:59.385Z,103444.73
2022-12-04T07:44:01.198Z,103460.73
2022-12-04T07:45:03.000Z,103457.28
2022-12-04T07:46:04.886Z,103441.84
2022-12-04T07:47:06.690Z,103450.37
2022-12-04T07:48:08.536Z,103463.86
2022-12-04T07:49:10.335Z,103468.36
2022-12-04T07:50:12.235Z,103444.00
2022-12-04T07:51:14.049Z,103470.36
2022-12-04T07:52:15.903Z,103458.17
2022-12-04T07:53:17.743Z,103470.91
2022-12-04T07:54:19.569Z,103454.19
2022-12-04T07:55:23.281Z,103450.33
2022-12-04T07:56:25.010Z,103444.69
2022-12-04T07:57:26.886Z,103444.47
2022-12-04T07:58:28.695Z,103462.75
2022-12-04T07:59:30.531Z,103452.91
2022-12-04T08:00:32.424Z,103447.81
2022-12-04T08:01:34.294Z,103449.59
2022-12-04T08:02:36.174Z,103457.58
2022-12-04T08:03:42.092Z,103453.91
2022-12-04T08:04:41.881Z,103450.27
2022-12-04T08:05:43.668Z,103458.50
2022-12-04T08:06:45.480Z,103440.67
2022-12-04T08:07:47.338Z,103445.34
2022-12-04T08:08:49.109Z,103452.77
2022-12-04T08:09:50.952Z,103444.56
2022-12-04T08:10:52.753Z,103441.85
2022-12-04T08:11:54.551Z,103455.64
2022-12-04T08:12:56.383Z,103472.75
2022-12-04T08:13:58.187Z,103461.47
2022-12-04T08:15:00.002Z,103453.83
2022-12-04T08:16:01.797Z,103445.29
2022-12-04T08:17:03.653Z,103443.08
2022-12-04T08:18:05.576Z,103446.89
2022-12-04T08:19:07.473Z,103448.51
2022-12-04T08:20:09.374Z,103436.70
2022-12-04T08:21:11.177Z,103441.79
2022-12-04T08:22:12.998Z,103441.96
2022-12-04T08:23:14.845Z,103454.10
2022-12-04T08:24:16.640Z,103445.56
2022-12-04T08:25:18.449Z,103443.35
2022-12-04T08:26:20.252Z,103450.94
2022-12-04T08:27:22.086Z,103455.44
2022-12-04T08:28:23.933Z,103454.71
2022-12-04T08:29:25.751Z,103437.94
2022-12-04T08:30:27.650Z,103447.95
2022-12-04T08:31:29.567Z,103442.86
2022-12-04T08:32:31.417Z,103454.15
2022-12-04T08:33:33.279Z,103452.16
2022-12-04T08:34:35.108Z,103446.73
2022-12-04T08:35:36.903Z,103432.77
2022-12-04T08:36:38.717Z,103428.73
2022-12-04T08:37:40.517Z,103433.66
2022-12-04T08:38:42.377Z,103432.77
2022-12-04T08:39:44.183Z,103432.17
2022-12-04T08:40:46.111Z,103451.44
2022-12-04T08:41:51.081Z,103430.12
2022-12-04T08:42:51.546Z,103431.94
2022-12-04T08:43:53.401Z,103421.41
2022-12-04T08:44:55.253Z,103414.66
2022-12-04T08:45:57.081Z,103412.45
2022-12-04T08:46:59.778Z,103409.73
2022-12-04T08:48:02.125Z,103431.94
2022-12-04T08:49:04.002Z,103430.12
2022-12-04T08:50:06.047Z,103411.22
2022-12-04T08:51:07.903Z,103413.20
2022-12-04T08:52:09.784Z,103431.05
2022-12-04T08:53:11.597Z,103411.55
2022-12-04T08:54:13.462Z,103407.95
2022-12-04T08:55:15.283Z,103411.06
2022-12-04T08:56:17.101Z,103400.30
2022-12-04T08:57:18.930Z,103400.47
2022-12-04T08:58:20.746Z,103398.08
2022-12-04T08:59:22.611Z,103396.59
2022-12-04T09:00:24.454Z,103389.77
2022-12-04T09:01:26.302Z,103390.09
2022-12-04T09:02:28.157Z,103393.13
2022-12-04T09:03:31.159Z,103411.14
2022-12-04T09:04:33.147Z,103398.56
2022-12-04T09:05:35.032Z,103395.12
2022-12-04T09:06:36.936Z,103405.87
2022-12-04T09:07:38.869Z,103380.39
2022-12-04T09:08:40.669Z,103380.55
2022-12-04T09:09:48.070Z,103367.64
2022-12-04T09:10:46.242Z,103372.91
2022-12-04T09:11:48.043Z,103374.88
2022-12-04T09:12:49.852Z,103369.22
2022-12-04T09:13:51.679Z,103380.14
2022-12-04T09:14:53.531Z,103364.12
2022-12-04T09:15:55.372Z,103360.48
2022-12-04T09:16:57.440Z,103356.88
2022-12-04T09:17:59.256Z,103356.47
2022-12-04T09:19:01.096Z,103350.80
2022-12-04T09:20:03.491Z,103357.85
2022-12-04T09:21:05.535Z,103355.63
2022-12-04T09:22:07.344Z,103363.44
2022-12-04T09:23:09.162Z,103375.45
2022-12-04T09:24:10.956Z,103360.16
2022-12-04T09:25:12.796Z,103360.48
2022-12-04T09:26:14.601Z,103356.59
2022-12-04T09:27:16.419Z,103369.50
2022-12-04T09:28:18.240Z,103362.94
2022-12-04T09:29:20.031Z,103359.47
2022-12-04T09:30:21.883Z,103362.53
2022-12-04T09:31:23.786Z,103371.56
2022-12-04T09:32:25.694Z,103371.40
2022-12-04T09:33:27.617Z,103370.83
2022-12-04T09:34:29.365Z,103367.19
2022-12-04T09:35:31.215Z,103348.28
2022-12-04T09:36:33.364Z,103375.00
2022-12-04T09:37:35.162Z,103349.97
2022-12-04T09:38:36.990Z,103350.14
2022-12-04T09:39:41.295Z,103387.98
2022-12-04T09:40:43.217Z,103360.09
2022-12-04T09:41:45.026Z,103345.52
2022-12-04T09:42:46.831Z,103347.17
2022-12-04T09:43:48.632Z,103348.98
2022-12-04T09:44:50.427Z,103351.54
2022-12-04T09:45:52.291Z,103344.05
2022-12-04T09:46:54.755Z,103351.86
2022-12-04T09:47:56.614Z,103347.97
2022-12-04T09:48:58.411Z,103352.81
2022-12-04T09:50:00.235Z,103360.15
2022-12-04T09:51:02.195Z,103356.70
2022-12-04T09:52:04.131Z,103352.66
2022-12-04T09:53:05.932Z,103359.58
2022-12-04T09:54:07.733Z,103328.19
2022-12-04T09:55:09.536Z,103333.30
2022-12-04T09:56:11.495Z,103344.84
2022-12-04T09:57:13.337Z,103324.75
2022-12-04T09:58:15.107Z,103340.38
2022-12-04T09:59:16.927Z,103341.42
2022-12-04T10:00:18.825Z,103327.92
2022-12-04T10:01:20.680Z,103333.34
2022-12-04T10:02:22.639Z,103344.45
2022-12-04T10:03:24.726Z,103333.19
2022-12-04T10:04:26.898Z,103341.16
2022-12-04T10:05:28.697Z,103348.55
2022-12-04T10:06:30.649Z,103334.13
2022-12-04T10:07:32.908Z,103335.22
2022-12-04T10:08:34.721Z,103329.95
2022-12-04T10:09:36.545Z,103337.45
2022-12-04T10:10:38.592Z,103364.45
2022-12-04T10:11:40.407Z,103334.91
2022-12-04T10:12:42.225Z,103333.66
2022-12-04T10:13:44.052Z,103337.77
2022-12-04T10:14:45.853Z,103332.21
2022-12-04T10:15:47.715Z,103325.63
2022-12-04T10:16:49.734Z,103339.13
2022-12-04T10:17:51.546Z,103332.68
2022-12-04T10:18:53.360Z,103336.89
2022-12-04T10:19:55.404Z,103332.68
2022-12-04T10:20:57.421Z,103334.34
2022-12-04T10:21:59.280Z,103347.84
2022-12-04T10:23:01.224Z,103340.02
2022-12-04T10:24:03.051Z,103325.48
2022-12-04T10:25:04.880Z,103328.03
2022-12-04T10:26:07.201Z,103322.63
2022-12-04T10:27:09.060Z,103334.08
2022-12-04T10:28:10.875Z,103333.46
2022-12-04T10:29:12.677Z,103326.73
2022-12-04T10:30:14.493Z,103318.64
2022-12-04T10:31:16.368Z,103331.11
2022-12-04T10:32:18.282Z,103328.44
2022-12-04T10:33:21.192Z,103314.63
2022-12-04T10:34:23.013Z,103347.52
2022-12-04T10:35:24.848Z,103315.09
2022-12-04T10:36:26.653Z,103311.45
2022-12-04T10:37:28.537Z,103335.09
2022-12-04T10:38:30.406Z,103322.94
2022-12-04T10:39:32.227Z,103315.12
2022-12-04T10:40:34.254Z,103315.39
2022-12-04T10:41:36.056Z,103314.31
2022-12-04T10:42:37.915Z,103311.45
2022-12-04T10:43:39.719Z,103314.31
2022-12-04T10:44:41.529Z,103332.69
2022-12-04T10:45:43.367Z,103319.15
2022-12-04T10:46:46.639Z,103316.59
2022-12-04T10:47:48.786Z,103312.56
2022-12-04T10:48:50.618Z,103311.05
2022-12-04T10:49:52.453Z,103317.67
2022-12-04T10:50:54.387Z,103307.92
2022-12-04T10:51:56.249Z,103323.40
2022-12-04T10:52:58.109Z,103311.20
2022-12-04T10:53:59.942Z,103311.05
2022-12-04T10:55:01.752Z,103320.23
2022-12-04T10:56:03.693Z,103320.81
2022-12-04T10:57:05.544Z,103323.83
2022-12-04T10:58:07.385Z,103314.66
2022-12-04T10:59:09.277Z,103305.36
2022-12-04T11:00:11.291Z,103290.19
2022-12-04T11:01:13.089Z,103304.00
2022-12-04T11:02:15.049Z,103304.74
2022-12-04T11:03:16.979Z,103301.45
2022-12-04T11:04:18.855Z,103294.83
2022-12-04T11:05:20.770Z,103310.31
2022-12-04T11:06:22.570Z,103303.73
2022-12-04T11:07:24.388Z,103296.22
2022-12-04T11:08:26.464Z,103296.80
2022-12-04T11:09:28.291Z,103293.50
2022-12-04T11:10:30.188Z,103300.09
2022-12-04T11:11:32.082Z,103331.67
2022-12-04T11:12:33.940Z,103287.31
2022-12-04T11:13:35.817Z,103298.62
2022-12-04T11:14:37.662Z,103294.24
2022-12-04T11:15:39.438Z,103297.11
2022-12-04T11:16:41.330Z,103312.00
2022-12-04T11:17:43.228Z,103295.78
2022-12-04T11:18:45.097Z,103295.78
2022-12-04T11:19:46.929Z,103290.97
2022-12-04T11:20:48.776Z,103300.42
2022-12-04T11:21:50.594Z,103288.88
2022-12-04T11:22:52.495Z,103290.80
2022-12-04T11:23:54.304Z,103299.70
2022-12-04T11:24:56.112Z,103296.99
2022-12-04T11:26:03.812Z,103306.44
2022-12-04T11:27:01.641Z,103307.52
2022-12-04T11:28:03.472Z,103300.74
2022-12-04T11:29:05.323Z,103300.00
2022-12-04T11:30:07.350Z,103306.44
2022-12-04T11:31:09.242Z,103295.78
2022-12-04T11:32:11.134Z,103293.08
2022-12-04T11:33:12.925Z,103288.11
2022-12-04T11:34:14.802Z,103294.12
2022-12-04T11:35:16.681Z,103295.20
2022-12-04T11:36:18.673Z,103309.94
2022-12-04T11:37:20.595Z,103299.09
2022-12-04T11:38:22.372Z,103302.58
2022-12-04T11:39:24.243Z,103301.21
2022-12-04T11:40:26.237Z,103294.28
2022-12-04T11:41:28.060Z,103297.61
2022-12-04T11:42:29.886Z,103299.09
2022-12-04T11:43:31.726Z,103297.61
2022-12-04T11:44:33.549Z,103295.64
2022-12-04T11:45:35.344Z,103297.90
2022-12-04T11:46:37.686Z,103301.78
2022-12-04T11:47:39.512Z,103306.16
2022-12-04T11:48:41.420Z,103297.45